sensor_id;sensor_type;location;lat;lon;timestamp;temperature;humidity
64654;DHT22;51065;48.884;12.598;2023-06-14T00:01:18;12.60;99.90
64654;DHT22;51065;48.884;12.598;2023-06-14T00:03:45;12.60;99.90
64654;DHT22;51065;48.884;12.598;2023-06-14T00:06:12;12.50;99.90
64654;DHT22;51065;48.884;12.598;2023-06-14T00:08:38;12.40;99.90
64654;DHT22;51065;48.884;12.598;2023-06-14T00:11:05;12.20;99.90
64654;DHT22;51065;48.884;12.598;2023-06-14T00:13:30;12.00;99.90
64654;DHT22;51065;48.884;12.598;2023-06-14T00:15:56;11.80;99.90
64654;DHT22;51065;48.884;12.598;2023-06-14T00:18:22;11.80;99.90
64654;DHT22;51065;48.884;12.598;2023-06-14T00:20:55;11.70;99.90
64654;DHT22;51065;48.884;12.598;2023-06-14T00:23:21;11.70;99.90
64654;DHT22;51065;48.884;12.598;2023-06-14T00:25:47;11.80;99.90
64654;DHT22;51065;48.884;12.598;2023-06-14T00:28:13;11.90;99.90
64654;DHT22;51065;48.884;12.598;2023-06-14T00:30:38;12.20;99.90
64654;DHT22;51065;48.884;12.598;2023-06-14T00:33:04;12.20;99.90
64654;DHT22;51065;48.884;12.598;2023-06-14T00:35:30;12.30;99.90
64654;DHT22;51065;48.884;12.598;2023-06-14T00:37:55;12.40;99.90
64654;DHT22;51065;48.884;12.598;2023-06-14T00:40:21;12.30;99.90
64654;DHT22;51065;48.884;12.598;2023-06-14T00:42:47;12.30;99.90
64654;DHT22;51065;48.884;12.598;2023-06-14T00:45:13;12.30;99.90
64654;DHT22;51065;48.884;12.598;2023-06-14T00:47:41;12.10;99.90
64654;DHT22;51065;48.884;12.598;2023-06-14T00:50:08;12.10;99.90
64654;DHT22;51065;48.884;12.598;2023-06-14T00:52:34;12.30;99.90
64654;DHT22;51065;48.884;12.598;2023-06-14T00:55:00;12.40;99.90
64654;DHT22;51065;48.884;12.598;2023-06-14T00:57:27;12.40;99.90
64654;DHT22;51065;48.884;12.598;2023-06-14T00:59:53;12.50;99.90
64654;DHT22;51065;48.884;12.598;2023-06-14T01:02:19;12.60;99.90
64654;DHT22;51065;48.884;12.598;2023-06-14T01:04:47;12.60;99.90
64654;DHT22;51065;48.884;12.598;2023-06-14T01:10:29;12.40;99.90
64654;DHT22;51065;48.884;12.598;2023-06-14T01:13:15;12.40;99.90
64654;DHT22;51065;48.884;12.598;2023-06-14T01:15:45;12.30;99.90
64654;DHT22;51065;48.884;12.598;2023-06-14T01:18:12;12.50;99.90
64654;DHT22;51065;48.884;12.598;2023-06-14T01:20:43;12.50;99.90
64654;DHT22;51065;48.884;12.598;2023-06-14T01:23:10;12.40;99.90
64654;DHT22;51065;48.884;12.598;2023-06-14T01:25:37;12.40;99.90
64654;DHT22;51065;48.884;12.598;2023-06-14T01:28:05;12.20;99.90
64654;DHT22;51065;48.884;12.598;2023-06-14T01:30:58;12.20;99.90
64654;DHT22;51065;48.884;12.598;2023-06-14T01:33:25;12.20;99.90
64654;DHT22;51065;48.884;12.598;2023-06-14T01:35:52;12.30;99.90
64654;DHT22;51065;48.884;12.598;2023-06-14T01:38:21;12.30;99.90
64654;DHT22;51065;48.884;12.598;2023-06-14T01:40:48;12.30;99.90
64654;DHT22;51065;48.884;12.598;2023-06-14T01:43:14;12.30;99.90
64654;DHT22;51065;48.884;12.598;2023-06-14T01:45:42;12.30;99.90
64654;DHT22;51065;48.884;12.598;2023-06-14T01:48:08;12.30;99.90
64654;DHT22;51065;48.884;12.598;2023-06-14T01:50:34;12.30;99.90
64654;DHT22;51065;48.884;12.598;2023-06-14T01:53:00;12.30;99.90
64654;DHT22;51065;48.884;12.598;2023-06-14T01:55:26;12.20;99.90
64654;DHT22;51065;48.884;12.598;2023-06-14T01:57:52;12.20;99.90
64654;DHT22;51065;48.884;12.598;2023-06-14T02:00:18;12.10;99.90
64654;DHT22;51065;48.884;12.598;2023-06-14T02:02:45;12.10;99.90
64654;DHT22;51065;48.884;12.598;2023-06-14T02:05:11;12.00;99.90
64654;DHT22;51065;48.884;12.598;2023-06-14T02:07:36;11.90;99.90
64654;DHT22;51065;48.884;12.598;2023-06-14T02:10:03;11.80;99.90
64654;DHT22;51065;48.884;12.598;2023-06-14T02:12:29;11.80;99.90
64654;DHT22;51065;48.884;12.598;2023-06-14T02:14:55;11.80;99.90
64654;DHT22;51065;48.884;12.598;2023-06-14T02:17:22;11.80;99.90
64654;DHT22;51065;48.884;12.598;2023-06-14T02:19:47;11.80;99.90
64654;DHT22;51065;48.884;12.598;2023-06-14T02:22:14;11.80;99.90
64654;DHT22;51065;48.884;12.598;2023-06-14T02:24:41;11.70;99.90
64654;DHT22;51065;48.884;12.598;2023-06-14T02:27:06;11.60;99.90
64654;DHT22;51065;48.884;12.598;2023-06-14T02:29:32;11.60;99.90
64654;DHT22;51065;48.884;12.598;2023-06-14T02:31:57;11.60;99.90
64654;DHT22;51065;48.884;12.598;2023-06-14T02:34:23;11.70;99.90
64654;DHT22;51065;48.884;12.598;2023-06-14T02:36:48;11.90;99.90
64654;DHT22;51065;48.884;12.598;2023-06-14T02:39:15;11.90;99.90
64654;DHT22;51065;48.884;12.598;2023-06-14T02:41:40;11.80;99.90
64654;DHT22;51065;48.884;12.598;2023-06-14T02:44:06;11.80;99.90
64654;DHT22;51065;48.884;12.598;2023-06-14T02:46:32;11.60;99.90
64654;DHT22;51065;48.884;12.598;2023-06-14T02:48:58;11.50;99.90
64654;DHT22;51065;48.884;12.598;2023-06-14T02:51:23;11.40;99.90
64654;DHT22;51065;48.884;12.598;2023-06-14T02:53:49;11.30;99.90
64654;DHT22;51065;48.884;12.598;2023-06-14T02:56:15;11.20;99.90
64654;DHT22;51065;48.884;12.598;2023-06-14T02:58:42;11.20;99.90
64654;DHT22;51065;48.884;12.598;2023-06-14T03:01:08;11.20;99.90
64654;DHT22;51065;48.884;12.598;2023-06-14T03:03:35;11.30;99.90
64654;DHT22;51065;48.884;12.598;2023-06-14T03:06:01;11.30;99.90
64654;DHT22;51065;48.884;12.598;2023-06-14T03:08:29;11.20;99.90
64654;DHT22;51065;48.884;12.598;2023-06-14T03:10:55;11.20;99.90
64654;DHT22;51065;48.884;12.598;2023-06-14T03:13:21;11.10;99.90
64654;DHT22;51065;48.884;12.598;2023-06-14T03:15:47;11.10;99.90
64654;DHT22;51065;48.884;12.598;2023-06-14T03:18:16;11.00;99.90
64654;DHT22;51065;48.884;12.598;2023-06-14T03:20:42;11.20;99.90
64654;DHT22;51065;48.884;12.598;2023-06-14T03:23:11;11.20;99.90
64654;DHT22;51065;48.884;12.598;2023-06-14T03:25:37;11.30;99.90
64654;DHT22;51065;48.884;12.598;2023-06-14T03:28:04;11.40;99.90
64654;DHT22;51065;48.884;12.598;2023-06-14T03:30:31;11.50;99.90
64654;DHT22;51065;48.884;12.598;2023-06-14T03:32:57;11.50;99.90
64654;DHT22;51065;48.884;12.598;2023-06-14T03:35:23;11.40;99.90
64654;DHT22;51065;48.884;12.598;2023-06-14T03:37:49;11.20;99.90
64654;DHT22;51065;48.884;12.598;2023-06-14T03:40:18;11.10;99.90
64654;DHT22;51065;48.884;12.598;2023-06-14T03:42:44;11.20;99.90
64654;DHT22;51065;48.884;12.598;2023-06-14T03:45:09;11.20;99.90
64654;DHT22;51065;48.884;12.598;2023-06-14T03:47:35;11.10;99.90
64654;DHT22;51065;48.884;12.598;2023-06-14T03:50:02;11.10;99.90
64654;DHT22;51065;48.884;12.598;2023-06-14T03:52:28;11.10;99.90
64654;DHT22;51065;48.884;12.598;2023-06-14T03:54:54;11.20;99.90
64654;DHT22;51065;48.884;12.598;2023-06-14T03:57:21;11.20;99.90
64654;DHT22;51065;48.884;12.598;2023-06-14T03:59:47;11.30;99.90
64654;DHT22;51065;48.884;12.598;2023-06-14T04:02:12;11.40;99.90
64654;DHT22;51065;48.884;12.598;2023-06-14T04:04:41;11.50;99.90
64654;DHT22;51065;48.884;12.598;2023-06-14T04:07:10;11.70;99.90
64654;DHT22;51065;48.884;12.598;2023-06-14T04:09:37;11.80;99.90
64654;DHT22;51065;48.884;12.598;2023-06-14T04:12:03;11.90;99.90
64654;DHT22;51065;48.884;12.598;2023-06-14T04:14:29;12.10;99.90
64654;DHT22;51065;48.884;12.598;2023-06-14T04:16:56;12.20;99.90
64654;DHT22;51065;48.884;12.598;2023-06-14T04:19:21;12.40;99.90
64654;DHT22;51065;48.884;12.598;2023-06-14T04:21:47;12.50;99.90
64654;DHT22;51065;48.884;12.598;2023-06-14T04:24:13;12.60;99.90
64654;DHT22;51065;48.884;12.598;2023-06-14T04:26:42;12.80;99.90
64654;DHT22;51065;48.884;12.598;2023-06-14T04:29:13;13.30;99.90
64654;DHT22;51065;48.884;12.598;2023-06-14T04:31:46;14.00;99.90
64654;DHT22;51065;48.884;12.598;2023-06-14T04:34:12;14.70;99.90
64654;DHT22;51065;48.884;12.598;2023-06-14T04:36:44;15.30;99.90
64654;DHT22;51065;48.884;12.598;2023-06-14T04:39:15;15.70;98.90
64654;DHT22;51065;48.884;12.598;2023-06-14T04:41:43;16.10;94.60
64654;DHT22;51065;48.884;12.598;2023-06-14T04:44:08;16.40;91.40
64654;DHT22;51065;48.884;12.598;2023-06-14T04:46:36;16.60;86.20
64654;DHT22;51065;48.884;12.598;2023-06-14T04:49:14;16.80;86.70
64654;DHT22;51065;48.884;12.598;2023-06-14T04:51:41;17.00;87.20
64654;DHT22;51065;48.884;12.598;2023-06-14T04:54:10;17.40;78.30
64654;DHT22;51065;48.884;12.598;2023-06-14T04:56:40;17.50;75.00
64654;DHT22;51065;48.884;12.598;2023-06-14T04:59:05;17.70;76.70
64654;DHT22;51065;48.884;12.598;2023-06-14T05:01:31;17.90;74.20
64654;DHT22;51065;48.884;12.598;2023-06-14T05:03:57;18.10;72.50
64654;DHT22;51065;48.884;12.598;2023-06-14T05:06:23;18.00;72.60
64654;DHT22;51065;48.884;12.598;2023-06-14T05:08:49;18.00;78.70
64654;DHT22;51065;48.884;12.598;2023-06-14T05:11:15;18.20;70.70
64654;DHT22;51065;48.884;12.598;2023-06-14T05:13:42;18.60;71.00
64654;DHT22;51065;48.884;12.598;2023-06-14T05:16:10;18.60;67.30
64654;DHT22;51065;48.884;12.598;2023-06-14T05:18:36;18.60;73.20
64654;DHT22;51065;48.884;12.598;2023-06-14T05:21:03;18.30;70.10
64654;DHT22;51065;48.884;12.598;2023-06-14T05:23:30;18.80;69.00
64654;DHT22;51065;48.884;12.598;2023-06-14T05:25:56;18.80;67.00
64654;DHT22;51065;48.884;12.598;2023-06-14T05:28:22;18.80;65.80
64654;DHT22;51065;48.884;12.598;2023-06-14T05:30:48;19.10;68.90
64654;DHT22;51065;48.884;12.598;2023-06-14T05:33:13;19.30;66.00
64654;DHT22;51065;48.884;12.598;2023-06-14T05:35:39;19.30;65.70
64654;DHT22;51065;48.884;12.598;2023-06-14T05:38:05;19.50;62.10
64654;DHT22;51065;48.884;12.598;2023-06-14T05:40:31;19.90;59.90
64654;DHT22;51065;48.884;12.598;2023-06-14T05:42:56;20.00;61.40
64654;DHT22;51065;48.884;12.598;2023-06-14T05:45:22;20.20;60.30
64654;DHT22;51065;48.884;12.598;2023-06-14T05:47:47;20.40;57.10
64654;DHT22;51065;48.884;12.598;2023-06-14T05:50:13;20.20;56.30
64654;DHT22;51065;48.884;12.598;2023-06-14T05:52:38;20.60;57.10
64654;DHT22;51065;48.884;12.598;2023-06-14T05:55:04;20.80;55.40
64654;DHT22;51065;48.884;12.598;2023-06-14T05:57:30;20.90;54.30
64654;DHT22;51065;48.884;12.598;2023-06-14T05:59:55;20.90;54.10
64654;DHT22;51065;48.884;12.598;2023-06-14T06:02:21;20.80;53.60
64654;DHT22;51065;48.884;12.598;2023-06-14T06:04:47;20.90;54.10
64654;DHT22;51065;48.884;12.598;2023-06-14T06:07:12;21.30;52.90
64654;DHT22;51065;48.884;12.598;2023-06-14T06:09:38;21.50;52.80
64654;DHT22;51065;48.884;12.598;2023-06-14T06:12:05;21.80;51.10
64654;DHT22;51065;48.884;12.598;2023-06-14T06:14:32;22.20;50.30
64654;DHT22;51065;48.884;12.598;2023-06-14T06:16:57;22.00;51.20
64654;DHT22;51065;48.884;12.598;2023-06-14T06:19:23;22.20;52.30
64654;DHT22;51065;48.884;12.598;2023-06-14T06:21:48;22.30;50.30
64654;DHT22;51065;48.884;12.598;2023-06-14T06:24:14;22.60;49.60
64654;DHT22;51065;48.884;12.598;2023-06-14T06:26:40;22.20;50.00
64654;DHT22;51065;48.884;12.598;2023-06-14T06:29:06;22.40;48.40
64654;DHT22;51065;48.884;12.598;2023-06-14T06:31:31;22.10;48.40
64654;DHT22;51065;48.884;12.598;2023-06-14T06:33:57;22.00;50.70
64654;DHT22;51065;48.884;12.598;2023-06-14T06:36:22;22.30;49.20
64654;DHT22;51065;48.884;12.598;2023-06-14T06:38:48;22.60;50.20
64654;DHT22;51065;48.884;12.598;2023-06-14T06:41:14;22.90;47.90
64654;DHT22;51065;48.884;12.598;2023-06-14T06:43:39;22.80;47.30
64654;DHT22;51065;48.884;12.598;2023-06-14T06:46:05;23.00;46.50
64654;DHT22;51065;48.884;12.598;2023-06-14T06:48:30;23.40;46.40
64654;DHT22;51065;48.884;12.598;2023-06-14T06:50:56;23.30;45.80
64654;DHT22;51065;48.884;12.598;2023-06-14T06:53:22;23.10;46.20
64654;DHT22;51065;48.884;12.598;2023-06-14T06:55:48;23.10;44.70
64654;DHT22;51065;48.884;12.598;2023-06-14T06:58:13;23.60;47.30
64654;DHT22;51065;48.884;12.598;2023-06-14T07:00:39;23.80;44.10
64654;DHT22;51065;48.884;12.598;2023-06-14T07:03:05;23.90;46.60
64654;DHT22;51065;48.884;12.598;2023-06-14T07:05:30;24.00;43.80
64654;DHT22;51065;48.884;12.598;2023-06-14T07:07:57;24.40;44.70
64654;DHT22;51065;48.884;12.598;2023-06-14T07:10:22;24.60;43.10
64654;DHT22;51065;48.884;12.598;2023-06-14T07:12:50;25.40;40.70
64654;DHT22;51065;48.884;12.598;2023-06-14T07:15:15;26.10;38.60
64654;DHT22;51065;48.884;12.598;2023-06-14T07:17:41;25.20;39.90
64654;DHT22;51065;48.884;12.598;2023-06-14T07:20:08;24.90;39.60
64654;DHT22;51065;48.884;12.598;2023-06-14T07:22:40;24.80;41.90
64654;DHT22;51065;48.884;12.598;2023-06-14T07:25:10;24.80;38.90
64654;DHT22;51065;48.884;12.598;2023-06-14T07:27:37;24.70;40.40
64654;DHT22;51065;48.884;12.598;2023-06-14T07:30:03;24.30;39.90
64654;DHT22;51065;48.884;12.598;2023-06-14T07:32:29;24.70;39.30
64654;DHT22;51065;48.884;12.598;2023-06-14T07:34:55;24.20;41.00
64654;DHT22;51065;48.884;12.598;2023-06-14T07:37:20;25.00;38.70
64654;DHT22;51065;48.884;12.598;2023-06-14T07:39:46;25.70;38.50
64654;DHT22;51065;48.884;12.598;2023-06-14T07:42:11;26.30;39.60
64654;DHT22;51065;48.884;12.598;2023-06-14T07:44:37;26.70;37.00
64654;DHT22;51065;48.884;12.598;2023-06-14T07:47:03;26.30;35.10
64654;DHT22;51065;48.884;12.598;2023-06-14T07:49:28;26.00;37.00
64654;DHT22;51065;48.884;12.598;2023-06-14T07:51:54;26.10;38.50
64654;DHT22;51065;48.884;12.598;2023-06-14T07:54:20;26.50;38.10
64654;DHT22;51065;48.884;12.598;2023-06-14T07:56:50;26.70;38.30
64654;DHT22;51065;48.884;12.598;2023-06-14T07:59:16;26.80;36.90
64654;DHT22;51065;48.884;12.598;2023-06-14T08:01:41;27.20;35.20
64654;DHT22;51065;48.884;12.598;2023-06-14T08:04:12;27.00;35.50
64654;DHT22;51065;48.884;12.598;2023-06-14T08:06:38;27.00;37.00
64654;DHT22;51065;48.884;12.598;2023-06-14T08:09:04;26.90;35.20
64654;DHT22;51065;48.884;12.598;2023-06-14T08:11:30;26.60;37.00
64654;DHT22;51065;48.884;12.598;2023-06-14T08:13:56;26.10;37.40
64654;DHT22;51065;48.884;12.598;2023-06-14T08:16:22;25.60;38.80
64654;DHT22;51065;48.884;12.598;2023-06-14T08:18:49;25.50;38.20
64654;DHT22;51065;48.884;12.598;2023-06-14T08:21:14;25.30;38.60
64654;DHT22;51065;48.884;12.598;2023-06-14T08:23:40;25.40;41.70
64654;DHT22;51065;48.884;12.598;2023-06-14T08:26:08;26.20;39.00
64654;DHT22;51065;48.884;12.598;2023-06-14T08:28:34;26.50;35.70
64654;DHT22;51065;48.884;12.598;2023-06-14T08:30:59;26.10;37.40
64654;DHT22;51065;48.884;12.598;2023-06-14T08:33:25;25.90;38.50
64654;DHT22;51065;48.884;12.598;2023-06-14T08:35:51;25.80;37.80
64654;DHT22;51065;48.884;12.598;2023-06-14T08:38:16;25.90;37.50
64654;DHT22;51065;48.884;12.598;2023-06-14T08:40:42;26.00;38.90
64654;DHT22;51065;48.884;12.598;2023-06-14T08:43:08;26.50;37.70
64654;DHT22;51065;48.884;12.598;2023-06-14T08:45:33;26.60;37.50
64654;DHT22;51065;48.884;12.598;2023-06-14T08:47:59;26.50;37.40
64654;DHT22;51065;48.884;12.598;2023-06-14T08:50:25;26.80;35.90
64654;DHT22;51065;48.884;12.598;2023-06-14T08:52:57;26.90;36.20
64654;DHT22;51065;48.884;12.598;2023-06-14T08:55:26;27.10;35.70
64654;DHT22;51065;48.884;12.598;2023-06-14T08:57:57;27.90;37.30
64654;DHT22;51065;48.884;12.598;2023-06-14T09:00:24;28.00;35.60
64654;DHT22;51065;48.884;12.598;2023-06-14T09:02:51;28.20;36.10
64654;DHT22;51065;48.884;12.598;2023-06-14T09:05:24;27.90;36.50
64654;DHT22;51065;48.884;12.598;2023-06-14T09:07:50;27.90;36.80
64654;DHT22;51065;48.884;12.598;2023-06-14T09:10:16;28.00;35.20
64654;DHT22;51065;48.884;12.598;2023-06-14T09:12:42;28.40;36.10
64654;DHT22;51065;48.884;12.598;2023-06-14T09:15:10;29.00;34.40
64654;DHT22;51065;48.884;12.598;2023-06-14T09:17:36;28.70;34.00
64654;DHT22;51065;48.884;12.598;2023-06-14T09:20:06;28.30;35.30
64654;DHT22;51065;48.884;12.598;2023-06-14T09:22:35;27.90;37.20
64654;DHT22;51065;48.884;12.598;2023-06-14T09:25:01;28.50;35.30
64654;DHT22;51065;48.884;12.598;2023-06-14T09:27:27;29.40;37.00
64654;DHT22;51065;48.884;12.598;2023-06-14T09:29:53;29.70;33.40
64654;DHT22;51065;48.884;12.598;2023-06-14T09:32:20;28.50;34.90
64654;DHT22;51065;48.884;12.598;2023-06-14T09:34:46;28.30;36.10
64654;DHT22;51065;48.884;12.598;2023-06-14T09:37:11;28.70;35.70
64654;DHT22;51065;48.884;12.598;2023-06-14T09:39:52;28.70;34.00
64654;DHT22;51065;48.884;12.598;2023-06-14T09:42:18;27.90;33.30
64654;DHT22;51065;48.884;12.598;2023-06-14T09:44:48;26.20;36.70
64654;DHT22;51065;48.884;12.598;2023-06-14T09:47:15;25.60;38.30
64654;DHT22;51065;48.884;12.598;2023-06-14T09:49:41;25.70;39.50
64654;DHT22;51065;48.884;12.598;2023-06-14T09:52:10;25.70;38.20
64654;DHT22;51065;48.884;12.598;2023-06-14T09:54:44;25.40;38.50
64654;DHT22;51065;48.884;12.598;2023-06-14T09:57:12;25.60;38.20
64654;DHT22;51065;48.884;12.598;2023-06-14T09:59:41;25.40;38.30
64654;DHT22;51065;48.884;12.598;2023-06-14T10:02:14;25.40;38.80
64654;DHT22;51065;48.884;12.598;2023-06-14T10:04:49;25.20;39.20
64654;DHT22;51065;48.884;12.598;2023-06-14T10:07:19;25.20;38.60
64654;DHT22;51065;48.884;12.598;2023-06-14T10:09:46;25.60;37.70
64654;DHT22;51065;48.884;12.598;2023-06-14T10:12:16;25.80;39.40
64654;DHT22;51065;48.884;12.598;2023-06-14T10:14:51;26.00;40.20
64654;DHT22;51065;48.884;12.598;2023-06-14T10:17:46;26.40;38.30
64654;DHT22;51065;48.884;12.598;2023-06-14T10:22:50;26.80;36.10
64654;DHT22;51065;48.884;12.598;2023-06-14T10:25:30;27.00;35.60
64654;DHT22;51065;48.884;12.598;2023-06-14T10:28:22;26.60;38.70
64654;DHT22;51065;48.884;12.598;2023-06-14T10:39:17;26.20;36.80
64654;DHT22;51065;48.884;12.598;2023-06-14T10:41:54;25.60;37.90
64654;DHT22;51065;48.884;12.598;2023-06-14T10:46:48;25.20;38.90
64654;DHT22;51065;48.884;12.598;2023-06-14T10:49:18;25.20;39.80
64654;DHT22;51065;48.884;12.598;2023-06-14T10:51:49;25.70;39.30
64654;DHT22;51065;48.884;12.598;2023-06-14T10:54:21;26.50;39.60
64654;DHT22;51065;48.884;12.598;2023-06-14T10:56:52;27.10;37.40
64654;DHT22;51065;48.884;12.598;2023-06-14T10:59:19;27.10;37.10
64654;DHT22;51065;48.884;12.598;2023-06-14T11:04:49;26.10;37.90
64654;DHT22;51065;48.884;12.598;2023-06-14T11:12:47;25.80;38.90
64654;DHT22;51065;48.884;12.598;2023-06-14T11:15:13;26.70;37.60
64654;DHT22;51065;48.884;12.598;2023-06-14T11:17:38;27.00;35.50
64654;DHT22;51065;48.884;12.598;2023-06-14T11:20:11;26.90;35.30
64654;DHT22;51065;48.884;12.598;2023-06-14T11:22:45;26.70;35.70
64654;DHT22;51065;48.884;12.598;2023-06-14T11:25:14;26.80;34.30
64654;DHT22;51065;48.884;12.598;2023-06-14T11:27:42;27.20;34.60
64654;DHT22;51065;48.884;12.598;2023-06-14T11:30:08;27.70;33.20
64654;DHT22;51065;48.884;12.598;2023-06-14T11:32:38;28.10;34.10
64654;DHT22;51065;48.884;12.598;2023-06-14T11:35:04;28.50;32.80
64654;DHT22;51065;48.884;12.598;2023-06-14T11:37:31;29.10;33.50
64654;DHT22;51065;48.884;12.598;2023-06-14T11:39:59;29.10;31.60
64654;DHT22;51065;48.884;12.598;2023-06-14T11:42:27;28.90;34.50
64654;DHT22;51065;48.884;12.598;2023-06-14T11:44:54;28.60;30.80
64654;DHT22;51065;48.884;12.598;2023-06-14T11:47:20;28.70;31.50
64654;DHT22;51065;48.884;12.598;2023-06-14T11:49:46;28.70;32.00
64654;DHT22;51065;48.884;12.598;2023-06-14T11:52:12;28.40;31.10
64654;DHT22;51065;48.884;12.598;2023-06-14T11:54:38;28.70;31.20
64654;DHT22;51065;48.884;12.598;2023-06-14T11:57:08;28.80;32.30
64654;DHT22;51065;48.884;12.598;2023-06-14T11:59:38;29.00;32.40
64654;DHT22;51065;48.884;12.598;2023-06-14T12:02:05;28.50;31.60
64654;DHT22;51065;48.884;12.598;2023-06-14T12:04:31;28.80;33.80
64654;DHT22;51065;48.884;12.598;2023-06-14T12:06:57;28.50;31.40
64654;DHT22;51065;48.884;12.598;2023-06-14T12:09:23;27.60;33.20
64654;DHT22;51065;48.884;12.598;2023-06-14T12:11:59;27.10;33.40
64654;DHT22;51065;48.884;12.598;2023-06-14T12:14:31;26.30;34.90
64654;DHT22;51065;48.884;12.598;2023-06-14T12:17:07;25.60;35.90
64654;DHT22;51065;48.884;12.598;2023-06-14T12:19:32;25.50;36.90
64654;DHT22;51065;48.884;12.598;2023-06-14T12:22:04;24.90;38.60
64654;DHT22;51065;48.884;12.598;2023-06-14T12:24:30;25.60;37.60
64654;DHT22;51065;48.884;12.598;2023-06-14T12:26:58;26.50;37.00
64654;DHT22;51065;48.884;12.598;2023-06-14T12:29:25;27.50;36.70
64654;DHT22;51065;48.884;12.598;2023-06-14T12:31:51;27.60;35.70
64654;DHT22;51065;48.884;12.598;2023-06-14T12:34:16;27.30;37.20
64654;DHT22;51065;48.884;12.598;2023-06-14T12:36:42;26.10;36.90
64654;DHT22;51065;48.884;12.598;2023-06-14T12:39:10;25.60;38.70
64654;DHT22;51065;48.884;12.598;2023-06-14T12:41:36;25.20;39.30
64654;DHT22;51065;48.884;12.598;2023-06-14T12:44:02;24.60;38.90
64654;DHT22;51065;48.884;12.598;2023-06-14T12:46:30;24.40;40.80
64654;DHT22;51065;48.884;12.598;2023-06-14T12:48:56;24.00;41.30
64654;DHT22;51065;48.884;12.598;2023-06-14T12:51:22;23.80;42.00
64654;DHT22;51065;48.884;12.598;2023-06-14T12:53:49;23.80;42.10
64654;DHT22;51065;48.884;12.598;2023-06-14T12:56:15;23.60;42.10
64654;DHT22;51065;48.884;12.598;2023-06-14T12:58:41;23.50;41.50
64654;DHT22;51065;48.884;12.598;2023-06-14T13:01:07;23.50;42.30
64654;DHT22;51065;48.884;12.598;2023-06-14T13:03:32;23.70;43.50
64654;DHT22;51065;48.884;12.598;2023-06-14T13:06:00;23.90;42.20
64654;DHT22;51065;48.884;12.598;2023-06-14T13:08:26;23.90;41.20
64654;DHT22;51065;48.884;12.598;2023-06-14T13:10:53;23.90;39.80
64654;DHT22;51065;48.884;12.598;2023-06-14T13:13:18;23.90;41.10
64654;DHT22;51065;48.884;12.598;2023-06-14T13:15:44;24.20;40.40
64654;DHT22;51065;48.884;12.598;2023-06-14T13:18:11;24.30;39.20
64654;DHT22;51065;48.884;12.598;2023-06-14T13:20:38;24.40;38.70
64654;DHT22;51065;48.884;12.598;2023-06-14T13:23:04;24.50;38.70
64654;DHT22;51065;48.884;12.598;2023-06-14T13:25:33;24.70;37.60
64654;DHT22;51065;48.884;12.598;2023-06-14T13:27:58;24.80;37.50
64654;DHT22;51065;48.884;12.598;2023-06-14T13:30:24;24.90;38.00
64654;DHT22;51065;48.884;12.598;2023-06-14T13:32:49;24.80;37.30
64654;DHT22;51065;48.884;12.598;2023-06-14T13:35:17;25.00;37.50
64654;DHT22;51065;48.884;12.598;2023-06-14T13:37:43;25.00;36.70
64654;DHT22;51065;48.884;12.598;2023-06-14T13:40:09;25.20;38.50
64654;DHT22;51065;48.884;12.598;2023-06-14T13:42:34;25.10;37.80
64654;DHT22;51065;48.884;12.598;2023-06-14T13:45:01;25.20;38.80
64654;DHT22;51065;48.884;12.598;2023-06-14T13:47:27;25.30;37.60
64654;DHT22;51065;48.884;12.598;2023-06-14T13:49:52;25.50;36.80
64654;DHT22;51065;48.884;12.598;2023-06-14T13:52:18;25.50;38.50
64654;DHT22;51065;48.884;12.598;2023-06-14T13:54:43;25.40;37.90
64654;DHT22;51065;48.884;12.598;2023-06-14T13:57:09;25.60;37.70
64654;DHT22;51065;48.884;12.598;2023-06-14T13:59:38;25.80;37.00
64654;DHT22;51065;48.884;12.598;2023-06-14T14:02:04;25.70;37.30
64654;DHT22;51065;48.884;12.598;2023-06-14T14:04:31;26.00;36.20
64654;DHT22;51065;48.884;12.598;2023-06-14T14:06:56;26.60;36.30
64654;DHT22;51065;48.884;12.598;2023-06-14T14:09:22;26.90;36.10
64654;DHT22;51065;48.884;12.598;2023-06-14T14:11:48;27.20;35.30
64654;DHT22;51065;48.884;12.598;2023-06-14T14:14:14;28.00;35.60
64654;DHT22;51065;48.884;12.598;2023-06-14T14:16:40;28.90;33.20
64654;DHT22;51065;48.884;12.598;2023-06-14T14:19:06;29.70;33.70
64654;DHT22;51065;48.884;12.598;2023-06-14T14:21:32;30.70;32.30
64654;DHT22;51065;48.884;12.598;2023-06-14T14:23:58;30.80;32.10
64654;DHT22;51065;48.884;12.598;2023-06-14T14:26:24;29.80;31.50
64654;DHT22;51065;48.884;12.598;2023-06-14T14:28:50;28.50;32.20
64654;DHT22;51065;48.884;12.598;2023-06-14T14:31:16;27.50;34.20
64654;DHT22;51065;48.884;12.598;2023-06-14T14:33:42;27.30;35.40
64654;DHT22;51065;48.884;12.598;2023-06-14T14:36:07;26.40;35.30
64654;DHT22;51065;48.884;12.598;2023-06-14T14:38:33;26.70;35.00
64654;DHT22;51065;48.884;12.598;2023-06-14T14:40:59;26.80;34.20
64654;DHT22;51065;48.884;12.598;2023-06-14T14:43:24;26.80;34.80
64654;DHT22;51065;48.884;12.598;2023-06-14T14:45:50;26.90;34.60
64654;DHT22;51065;48.884;12.598;2023-06-14T14:48:16;26.50;35.60
64654;DHT22;51065;48.884;12.598;2023-06-14T14:50:41;26.50;35.00
64654;DHT22;51065;48.884;12.598;2023-06-14T14:53:07;26.60;36.00
64654;DHT22;51065;48.884;12.598;2023-06-14T14:55:32;26.90;35.00
64654;DHT22;51065;48.884;12.598;2023-06-14T14:58:01;27.00;34.40
64654;DHT22;51065;48.884;12.598;2023-06-14T15:00:28;27.00;34.40
64654;DHT22;51065;48.884;12.598;2023-06-14T15:02:56;26.70;34.10
64654;DHT22;51065;48.884;12.598;2023-06-14T15:05:22;26.20;35.40
64654;DHT22;51065;48.884;12.598;2023-06-14T15:07:47;26.50;35.40
64654;DHT22;51065;48.884;12.598;2023-06-14T15:10:14;26.70;36.10
64654;DHT22;51065;48.884;12.598;2023-06-14T15:12:39;26.60;34.60
64654;DHT22;51065;48.884;12.598;2023-06-14T15:15:05;26.50;35.70
64654;DHT22;51065;48.884;12.598;2023-06-14T15:17:31;26.90;35.60
64654;DHT22;51065;48.884;12.598;2023-06-14T15:19:57;27.20;35.10
64654;DHT22;51065;48.884;12.598;2023-06-14T15:22:22;27.00;35.90
64654;DHT22;51065;48.884;12.598;2023-06-14T15:24:48;27.10;35.60
64654;DHT22;51065;48.884;12.598;2023-06-14T15:27:13;27.30;35.70
64654;DHT22;51065;48.884;12.598;2023-06-14T15:29:41;27.80;34.80
64654;DHT22;51065;48.884;12.598;2023-06-14T15:32:07;28.30;34.40
64654;DHT22;51065;48.884;12.598;2023-06-14T15:34:33;27.50;34.10
64654;DHT22;51065;48.884;12.598;2023-06-14T15:36:59;27.10;35.00
64654;DHT22;51065;48.884;12.598;2023-06-14T15:39:25;26.90;36.40